Decoded Metar for GCHI (HIERRO in SPAIN) (IATA:VDE) | Meteo·Mobile Aviation Weather
aviador You're here:

GCHI Decoded Metar

HIERRO in SPAIN
Report Time2018-10-17 05:30:00
UTC Time2018-10-17 06:00:12
Flight Rules vfr VFR
Wind360° at 09 kt
W.Decomp.*RWY 34: 8.0 kt HW 4.1 kt RCW
Visibility9999 m
Phenomena:N/A
Clouds:Few 050 Hf
Expected CloudBase > 1,200 ft AGL from Temp-Dew spread
CeilingNone
Temp22°C (ISA +7)
Dew Point19°C (83% RH)
QNH1019 hPa
Density Alt1,024 ft
Elevation98 ft
Report Wrong Elevation
Raw Report
GCHI 170530Z AUTO 36009KT 330V040 9999 FEW050 22/19 Q1019=

Extra information for GCHI:More info

Metar Taf Metar & Taf Last 4 Metars F.Rules Stats Wind Profile Meteogram Temp Stats Airport Information Weather charts Add Link Nearby VenuesMetar ALERT Operation Metar Decoded Social comments